createdAt,value
2018-04-25T00:00:38.217Z,6.07
2018-04-25T00:04:40.691Z,6.97
2018-04-25T00:08:43.181Z,6.40
2018-04-25T00:12:45.682Z,6.87
2018-04-25T00:16:48.142Z,6.70
2018-04-25T00:20:50.622Z,7.00
2018-04-25T00:24:53.099Z,7.10
2018-04-25T00:28:55.557Z,7.00
2018-04-25T00:32:58.032Z,6.70
2018-04-25T00:37:00.510Z,6.87
2018-04-25T00:41:03.018Z,7.03
2018-04-25T00:45:05.471Z,7.17
2018-04-25T00:49:07.989Z,6.97
2018-04-25T00:53:10.470Z,7.77
2018-04-25T00:57:12.938Z,7.33
2018-04-25T01:01:15.494Z,7.20
2018-04-25T01:05:17.950Z,7.60
2018-04-25T01:09:20.405Z,8.60
2018-04-25T01:13:22.887Z,7.83
2018-04-25T01:17:25.358Z,8.23
2018-04-25T01:21:27.830Z,8.40
2018-04-25T01:25:31.149Z,7.60
2018-04-25T01:29:33.605Z,8.90
2018-04-25T01:33:41.974Z,9.03
2018-04-25T01:37:47.915Z,9.43
2018-04-25T01:41:50.373Z,9.97
2018-04-25T01:46:25.312Z,10.23
2018-04-25T01:50:32.661Z,9.47
2018-04-25T01:54:47.043Z,9.97
2018-04-25T01:59:01.220Z,10.70
2018-04-25T02:03:03.161Z,10.03
2018-04-25T02:07:05.622Z,10.20
2018-04-25T02:11:08.110Z,11.10
2018-04-25T02:15:10.629Z,12.13
2018-04-25T02:19:13.101Z,13.93
2018-04-25T02:23:15.619Z,12.90
2018-04-25T02:27:18.107Z,11.93
2018-04-25T02:31:20.576Z,11.37
2018-04-25T02:35:23.075Z,11.07
2018-04-25T02:39:25.572Z,12.47
2018-04-25T02:43:28.051Z,11.03
2018-04-25T02:47:30.541Z,10.70
2018-04-25T02:51:33.055Z,10.43
2018-04-25T02:55:35.541Z,10.07
2018-04-25T02:59:37.995Z,10.53
2018-04-25T03:03:40.503Z,10.10
2018-04-25T03:07:42.996Z,10.53
2018-04-25T03:11:45.470Z,10.70
2018-04-25T03:15:47.939Z,10.23
2018-04-25T03:19:50.414Z,9.97
2018-04-25T03:23:52.934Z,10.10
2018-04-25T03:27:55.392Z,9.73
2018-04-25T03:31:57.876Z,10.57
2018-04-25T03:36:00.375Z,11.50
2018-04-25T03:40:02.871Z,11.03
2018-04-25T03:44:05.363Z,11.10
2018-04-25T03:48:07.844Z,11.20
2018-04-25T03:52:10.330Z,15.57
2018-04-25T03:56:12.812Z,12.83
2018-04-25T04:00:15.274Z,17.97
2018-04-25T04:04:17.758Z,12.00
2018-04-25T04:08:20.273Z,12.13
2018-04-25T04:12:22.728Z,12.93
2018-04-25T04:16:25.238Z,12.53
2018-04-25T04:20:27.720Z,12.07
2018-04-25T04:24:30.206Z,12.10
2018-04-25T04:28:32.687Z,12.00
2018-04-25T04:32:35.193Z,11.87
2018-04-25T04:36:37.712Z,11.70
2018-04-25T04:40:40.167Z,11.83
2018-04-25T04:44:42.666Z,16.37
2018-04-25T04:48:45.128Z,34.57
2018-04-25T04:52:47.632Z,16.10
2018-04-25T04:56:50.113Z,18.07
2018-04-25T05:00:52.607Z,15.07
2018-04-25T05:04:55.087Z,13.77
2018-04-25T05:08:57.582Z,14.07
2018-04-25T05:13:00.078Z,14.23
2018-04-25T05:17:02.567Z,14.10
2018-04-25T05:21:05.057Z,14.70
2018-04-25T05:25:07.556Z,14.70
2018-04-25T05:29:10.046Z,15.03
2018-04-25T05:33:12.506Z,15.13
2018-04-25T05:37:14.995Z,15.13
2018-04-25T05:41:17.479Z,15.57
2018-04-25T05:45:19.938Z,15.27
2018-04-25T05:49:22.418Z,15.70
2018-04-25T05:53:24.881Z,16.40
2018-04-25T05:57:27.365Z,16.90
2018-04-25T06:01:29.851Z,17.07
2018-04-25T06:05:32.315Z,15.40
2018-04-25T06:09:34.812Z,16.50
2018-04-25T06:13:37.298Z,14.43
2018-04-25T06:17:39.784Z,16.00
2018-04-25T06:21:42.252Z,14.43
2018-04-25T06:25:44.767Z,14.43
2018-04-25T06:29:47.302Z,15.60
2018-04-25T06:33:49.796Z,15.53
2018-04-25T06:37:52.290Z,15.43
2018-04-25T06:41:54.783Z,16.03
2018-04-25T06:45:57.264Z,15.57
2018-04-25T06:49:59.733Z,16.90
2018-04-25T06:54:02.230Z,17.47
2018-04-25T06:58:04.726Z,16.53
2018-04-25T07:02:07.183Z,16.27
2018-04-25T07:06:09.666Z,15.73
2018-04-25T07:10:12.147Z,16.07
2018-04-25T07:14:14.613Z,15.23
2018-04-25T07:18:17.091Z,14.93
2018-04-25T07:22:19.579Z,13.43
2018-04-25T07:26:22.063Z,13.83
2018-04-25T07:30:24.566Z,11.73
2018-04-25T07:34:27.038Z,11.10
2018-04-25T07:38:29.534Z,12.87
2018-04-25T07:42:32.005Z,11.10
2018-04-25T07:46:34.492Z,10.93
2018-04-25T07:50:36.971Z,10.70
2018-04-25T07:54:39.462Z,10.10
2018-04-25T07:58:41.922Z,10.57
2018-04-25T08:02:44.406Z,9.97
2018-04-25T08:06:46.893Z,9.37
2018-04-25T08:10:49.354Z,9.70
2018-04-25T08:19:45.554Z,8.00
2018-04-25T08:23:49.050Z,7.47
2018-04-25T08:27:51.476Z,7.50
2018-04-25T08:31:53.936Z,7.83
2018-04-25T08:35:56.414Z,6.63
2018-04-25T08:39:58.881Z,6.93
2018-04-25T08:44:01.360Z,8.10
2018-04-25T08:48:03.847Z,7.03
2018-04-25T08:52:06.327Z,7.20
2018-04-25T08:56:08.771Z,6.73
2018-04-25T09:00:11.246Z,7.20
2018-04-25T09:04:13.728Z,6.53
2018-04-25T09:08:16.216Z,4.63
2018-04-25T09:12:18.699Z,6.80
2018-04-25T09:16:21.146Z,7.45
2018-04-25T09:20:23.653Z,7.68
2018-04-25T09:24:26.125Z,6.07
2018-04-25T09:28:28.625Z,5.85
2018-04-25T09:32:31.103Z,5.07
2018-04-25T09:36:33.559Z,4.37
2018-04-25T09:40:36.049Z,3.90
2018-04-25T09:44:38.533Z,3.90
2018-04-25T09:48:41.027Z,3.72
2018-04-25T09:52:43.506Z,3.42
2018-04-25T09:56:45.989Z,3.50
2018-04-25T10:00:53.983Z,3.55
2018-04-25T10:04:56.449Z,3.20
2018-04-25T10:08:58.981Z,3.10
2018-04-25T10:13:01.444Z,3.00
2018-04-25T10:17:04.004Z,3.47
2018-04-25T10:21:06.406Z,3.30
2018-04-25T10:25:08.912Z,3.22
2018-04-25T10:29:11.399Z,2.95
2018-04-25T10:33:13.866Z,3.30
2018-04-25T10:37:16.355Z,2.92
2018-04-25T10:41:18.811Z,3.37
2018-04-25T10:45:21.294Z,3.40
2018-04-25T10:49:23.790Z,3.10
2018-04-25T10:53:26.252Z,2.85
2018-04-25T10:57:28.727Z,2.90
2018-04-25T11:01:31.206Z,3.00
2018-04-25T11:05:33.686Z,2.87
2018-04-25T11:09:36.152Z,3.25
2018-04-25T11:13:38.637Z,3.35
2018-04-25T11:17:41.122Z,3.12
2018-04-25T11:21:43.585Z,3.00
2018-04-25T11:25:46.073Z,2.90
2018-04-25T11:29:48.531Z,3.08
2018-04-25T11:33:51.018Z,3.03
2018-04-25T11:37:53.506Z,3.62
2018-04-25T11:41:55.955Z,2.90
2018-04-25T11:45:58.453Z,3.35
2018-04-25T11:50:00.919Z,3.28
2018-04-25T11:54:03.418Z,3.62
2018-04-25T11:58:06.077Z,3.60
2018-04-25T12:02:08.574Z,3.83
2018-04-25T12:06:11.076Z,3.33
2018-04-25T12:10:13.580Z,3.40
2018-04-25T12:14:16.101Z,3.25
2018-04-25T12:18:18.680Z,3.53
2018-04-25T12:22:21.133Z,3.40
2018-04-25T12:26:23.617Z,3.95
2018-04-25T12:30:26.099Z,3.72
2018-04-25T12:34:28.592Z,3.70
2018-04-25T12:38:31.055Z,4.32
2018-04-25T12:42:33.541Z,4.00
2018-04-25T12:46:36.028Z,4.07
2018-04-25T12:50:38.487Z,3.72
2018-04-25T12:54:40.970Z,3.75
2018-04-25T12:58:43.460Z,3.92
2018-04-25T13:02:47.288Z,4.05
2018-04-25T13:06:50.096Z,3.97
2018-04-25T13:10:52.698Z,4.05
2018-04-25T13:14:55.675Z,4.55
2018-04-25T13:18:58.364Z,3.80
2018-04-25T13:23:01.200Z,3.55
2018-04-25T13:27:04.140Z,3.50
2018-04-25T13:31:06.674Z,4.00
2018-04-25T13:35:09.152Z,3.97
2018-04-25T13:39:11.638Z,4.07
2018-04-25T13:43:14.122Z,3.40
2018-04-25T13:47:16.598Z,3.70
2018-04-25T13:51:19.073Z,4.15
2018-04-25T13:55:21.555Z,4.10
2018-04-25T13:59:24.066Z,3.40
2018-04-25T14:03:26.522Z,3.70
2018-04-25T14:07:28.994Z,3.87
2018-04-25T14:11:31.455Z,3.80
2018-04-25T14:15:33.939Z,3.80
2018-04-25T14:19:36.436Z,3.40
2018-04-25T14:23:38.886Z,4.12
2018-04-25T14:27:41.362Z,3.70
2018-04-25T14:31:43.803Z,3.75
2018-04-25T14:35:46.301Z,3.70
2018-04-25T14:39:48.766Z,3.92
2018-04-25T14:43:51.265Z,4.07
2018-04-25T14:47:53.721Z,5.43
2018-04-25T14:51:56.205Z,4.00
2018-04-25T14:55:58.701Z,4.43
2018-04-25T15:00:01.172Z,4.22
2018-04-25T15:04:03.653Z,3.72
2018-04-25T15:08:06.177Z,3.60
2018-04-25T15:12:08.635Z,3.45
2018-04-25T15:16:11.115Z,3.80
2018-04-25T15:20:13.606Z,3.70
2018-04-25T15:24:16.085Z,3.97
2018-04-25T15:28:18.634Z,3.30
2018-04-25T15:32:21.076Z,4.60
2018-04-25T15:36:23.546Z,3.58
2018-04-25T15:40:26.035Z,4.37
2018-04-25T15:44:28.487Z,3.42
2018-04-25T15:48:30.972Z,4.05
2018-04-25T15:52:33.444Z,4.22
2018-04-25T15:56:35.934Z,4.72
2018-04-25T16:00:38.556Z,3.87
2018-04-25T16:04:41.214Z,4.00
2018-04-25T16:08:43.840Z,4.00
2018-04-25T16:12:46.330Z,4.10
2018-04-25T16:16:48.854Z,4.25
2018-04-25T16:20:51.533Z,4.00
2018-04-25T16:24:54.354Z,3.55
2018-04-25T16:28:56.825Z,4.45
2018-04-25T16:32:59.313Z,4.18
2018-04-25T16:37:01.810Z,7.93
2018-04-25T16:41:04.269Z,4.12
2018-04-25T16:45:06.747Z,6.60
2018-04-25T16:49:09.222Z,3.92
2018-04-25T16:53:11.697Z,3.65
2018-04-25T16:57:14.245Z,8.50
2018-04-25T17:01:16.709Z,4.25
2018-04-25T17:05:19.186Z,4.10
2018-04-25T17:09:21.667Z,3.97
2018-04-25T17:13:24.173Z,5.50
2018-04-25T17:17:26.647Z,4.57
2018-04-25T17:21:29.143Z,3.92
2018-04-25T17:25:31.634Z,3.50
2018-04-25T17:29:34.083Z,4.18
2018-04-25T17:33:36.573Z,4.05
2018-04-25T17:37:39.047Z,3.90
2018-04-25T17:41:41.528Z,4.40
2018-04-25T17:45:43.983Z,4.20
2018-04-25T17:49:46.461Z,4.25
2018-04-25T17:53:48.928Z,4.97
2018-04-25T17:57:51.402Z,6.00
2018-04-25T18:01:53.861Z,5.40
2018-04-25T18:05:56.348Z,4.90
2018-04-25T18:09:58.866Z,5.50
2018-04-25T18:14:01.350Z,9.40
2018-04-25T18:18:03.818Z,7.27
2018-04-25T18:22:06.311Z,20.77
2018-04-25T18:26:08.767Z,9.03
2018-04-25T18:30:11.261Z,13.10
2018-04-25T18:34:13.735Z,5.70
2018-04-25T18:38:16.223Z,6.07
2018-04-25T18:42:18.685Z,8.00
2018-04-25T18:46:21.180Z,12.47
2018-04-25T18:50:23.666Z,8.87
2018-04-25T18:54:26.160Z,22.90
2018-04-25T18:58:28.635Z,7.70
2018-04-25T19:02:31.091Z,7.40
2018-04-25T19:06:33.583Z,7.70
2018-04-25T19:10:36.062Z,7.30
2018-04-25T19:14:38.553Z,7.07
2018-04-25T19:18:40.998Z,7.43
2018-04-25T19:22:43.469Z,6.50
2018-04-25T19:26:45.921Z,6.57
2018-04-25T19:30:48.393Z,6.20
2018-04-25T19:34:50.876Z,6.47
2018-04-25T19:38:53.641Z,7.27
2018-04-25T19:42:56.243Z,6.20
2018-04-25T19:46:59.190Z,6.40
2018-04-25T19:51:01.706Z,6.73
2018-04-25T19:55:04.177Z,6.53
2018-04-25T19:59:06.822Z,7.00
2018-04-25T20:03:09.297Z,6.87
2018-04-25T20:07:12.102Z,7.27
2018-04-25T20:11:14.853Z,6.90
2018-04-25T20:15:18.628Z,5.87
2018-04-25T20:19:21.563Z,4.90
2018-04-25T20:23:24.191Z,5.00
2018-04-25T20:27:26.980Z,4.90
2018-04-25T20:31:29.526Z,4.77
2018-04-25T20:35:31.985Z,4.70
2018-04-25T20:39:34.469Z,4.40
2018-04-25T20:43:36.930Z,4.37
2018-04-25T20:47:39.406Z,4.87
2018-04-25T20:51:41.924Z,4.37
2018-04-25T20:55:45.419Z,4.90
2018-04-25T20:59:48.845Z,5.00
2018-04-25T21:03:57.122Z,5.07
2018-04-25T21:07:59.638Z,5.03
2018-04-25T21:12:02.110Z,4.60
2018-04-25T21:16:05.626Z,5.00
2018-04-25T21:20:09.036Z,5.10
2018-04-25T21:24:11.512Z,4.80
2018-04-25T21:28:14.014Z,5.20
2018-04-25T21:32:16.484Z,5.33
2018-04-25T21:36:18.935Z,4.97
2018-04-25T21:40:21.398Z,5.27
2018-04-25T21:44:23.882Z,4.60
2018-04-25T21:48:26.331Z,5.33
2018-04-25T21:52:28.851Z,4.90
2018-04-25T21:56:31.295Z,5.07
2018-04-25T22:00:33.767Z,5.23
2018-04-25T22:04:36.238Z,4.83
2018-04-25T22:08:38.745Z,4.57
2018-04-25T22:12:41.225Z,4.73
2018-04-25T22:16:43.691Z,4.63
2018-04-25T22:20:46.153Z,4.60
2018-04-25T22:24:48.614Z,4.90
2018-04-25T22:28:51.068Z,4.93
2018-04-25T22:32:53.566Z,4.97
2018-04-25T22:36:56.062Z,4.50
2018-04-25T22:40:58.519Z,4.47
2018-04-25T22:45:01.000Z,4.50
2018-04-25T22:49:03.481Z,4.37
2018-04-25T22:53:06.299Z,4.40
2018-04-25T22:57:08.781Z,4.73
2018-04-25T23:01:11.254Z,4.70
2018-04-25T23:05:13.715Z,4.83
2018-04-25T23:09:16.200Z,5.03
2018-04-25T23:13:18.644Z,4.90
2018-04-25T23:17:21.117Z,4.90
2018-04-25T23:21:23.599Z,5.00
2018-04-25T23:25:26.054Z,4.47
2018-04-25T23:29:28.542Z,5.53
2018-04-25T23:33:31.027Z,4.63
2018-04-25T23:37:33.505Z,4.70
2018-04-25T23:41:36.011Z,4.70
2018-04-25T23:45:38.458Z,4.50
2018-04-25T23:49:40.940Z,4.47
2018-04-25T23:53:43.398Z,4.77
2018-04-25T23:57:45.870Z,4.40
